createdAt,value
2019-06-26T00:01:53.417Z,99.90
2019-06-26T00:03:57.197Z,99.90
2019-06-26T00:06:00.742Z,99.90
2019-06-26T00:08:04.467Z,99.90
2019-06-26T00:10:08.513Z,99.90
2019-06-26T00:12:11.985Z,99.90
2019-06-26T00:14:15.464Z,99.90
2019-06-26T00:16:19.247Z,99.90
2019-06-26T00:18:23.069Z,99.90
2019-06-26T00:20:26.939Z,99.90
2019-06-26T00:22:30.658Z,99.90
2019-06-26T00:24:34.227Z,99.90
2019-06-26T00:26:37.764Z,99.90
2019-06-26T00:28:41.730Z,99.90
2019-06-26T00:30:45.221Z,99.90
2019-06-26T00:32:49.093Z,99.90
2019-06-26T00:34:52.841Z,99.90
2019-06-26T00:36:56.325Z,99.90
2019-06-26T00:38:59.881Z,99.90
2019-06-26T00:41:03.635Z,99.90
2019-06-26T00:43:07.145Z,99.90
2019-06-26T00:45:11.030Z,99.90
2019-06-26T00:47:14.580Z,99.90
2019-06-26T00:49:18.465Z,99.90
2019-06-26T00:51:21.937Z,99.90
2019-06-26T00:53:25.421Z,99.90
2019-06-26T00:55:28.965Z,99.90
2019-06-26T00:57:32.632Z,99.90
2019-06-26T00:59:36.213Z,99.90
2019-06-26T01:01:39.760Z,99.90
2019-06-26T01:03:43.256Z,99.90
2019-06-26T01:05:46.969Z,99.90
2019-06-26T01:07:50.818Z,99.90
2019-06-26T01:09:54.368Z,99.90
2019-06-26T01:11:58.213Z,99.90
2019-06-26T01:14:01.869Z,99.90
2019-06-26T01:16:05.414Z,99.90
2019-06-26T01:18:09.342Z,99.90
2019-06-26T01:20:13.292Z,99.90
2019-06-26T01:22:17.177Z,99.90
2019-06-26T01:24:20.720Z,99.90
2019-06-26T01:26:24.337Z,99.90
2019-06-26T01:28:27.877Z,99.90
2019-06-26T01:30:31.468Z,99.90
2019-06-26T01:32:34.941Z,99.90
2019-06-26T01:34:38.612Z,99.90
2019-06-26T01:36:42.441Z,99.90
2019-06-26T01:38:46.346Z,99.90
2019-06-26T01:40:51.150Z,99.90
2019-06-26T01:42:54.986Z,99.90
2019-06-26T01:44:58.591Z,99.90
2019-06-26T01:47:02.736Z,99.90
2019-06-26T01:49:06.310Z,99.90
2019-06-26T01:51:09.853Z,99.90
2019-06-26T01:53:13.688Z,99.90
2019-06-26T01:55:17.664Z,99.90
2019-06-26T01:57:21.306Z,99.90
2019-06-26T01:59:25.191Z,99.90
2019-06-26T02:01:28.733Z,99.90
2019-06-26T02:03:32.690Z,99.90
2019-06-26T02:05:36.517Z,99.90
2019-06-26T02:07:40.061Z,99.90
2019-06-26T02:09:43.904Z,99.90
2019-06-26T02:11:48.309Z,99.90
2019-06-26T02:13:52.047Z,99.90
2019-06-26T02:15:55.676Z,99.90
2019-06-26T02:18:00.033Z,99.90
2019-06-26T02:20:05.787Z,99.90
2019-06-26T02:22:09.394Z,99.90
2019-06-26T02:24:12.950Z,99.90
2019-06-26T02:26:16.496Z,99.90
2019-06-26T02:28:20.045Z,99.90
2019-06-26T02:30:23.725Z,99.90
2019-06-26T02:32:27.272Z,99.90
2019-06-26T02:34:30.825Z,99.90
2019-06-26T02:36:34.764Z,99.90
2019-06-26T02:38:38.425Z,99.90
2019-06-26T02:40:42.078Z,99.90
2019-06-26T02:42:45.620Z,99.90
2019-06-26T02:44:53.886Z,99.90
2019-06-26T02:46:54.595Z,99.90
2019-06-26T02:48:58.139Z,99.90
2019-06-26T02:51:01.690Z,99.90
2019-06-26T02:53:05.444Z,99.90
2019-06-26T02:55:09.630Z,99.90
2019-06-26T02:57:13.505Z,99.90
2019-06-26T02:59:16.996Z,99.90
2019-06-26T03:01:20.926Z,99.90
2019-06-26T03:03:24.464Z,99.90
2019-06-26T03:05:27.944Z,99.90
2019-06-26T03:07:31.926Z,99.90
2019-06-26T03:09:35.801Z,99.90
2019-06-26T03:11:40.130Z,99.90
2019-06-26T03:13:43.749Z,99.90
2019-06-26T03:15:50.337Z,99.90
2019-06-26T03:17:55.653Z,99.90
2019-06-26T03:19:58.438Z,99.90
2019-06-26T03:22:02.085Z,99.90
2019-06-26T03:24:07.194Z,99.90
2019-06-26T03:26:10.821Z,99.90
2019-06-26T03:28:14.376Z,99.90
2019-06-26T03:30:19.027Z,99.90
2019-06-26T03:32:22.628Z,99.90
2019-06-26T03:34:26.527Z,99.90
2019-06-26T03:36:30.325Z,99.90
2019-06-26T03:38:33.937Z,99.90
2019-06-26T03:40:37.517Z,99.90
2019-06-26T03:42:41.141Z,99.90
2019-06-26T03:44:45.077Z,99.90
2019-06-26T03:46:48.553Z,99.90
2019-06-26T03:48:52.095Z,99.90
2019-06-26T03:50:55.781Z,99.90
2019-06-26T03:52:59.329Z,99.90
2019-06-26T03:55:03.380Z,99.90
2019-06-26T03:57:07.103Z,99.90
2019-06-26T03:59:10.622Z,99.90
2019-06-26T04:01:14.313Z,99.90
2019-06-26T04:03:17.818Z,99.90
2019-06-26T04:05:21.371Z,99.90
2019-06-26T04:07:24.897Z,99.90
2019-06-26T04:09:28.362Z,99.90
2019-06-26T04:11:31.909Z,99.90
2019-06-26T04:13:35.693Z,99.90
2019-06-26T04:15:42.594Z,99.90
2019-06-26T04:17:45.221Z,99.90
2019-06-26T04:19:48.783Z,99.90
2019-06-26T04:21:52.580Z,99.90
2019-06-26T04:23:56.120Z,99.90
2019-06-26T04:25:59.779Z,99.90
2019-06-26T04:28:06.285Z,99.90
2019-06-26T04:30:10.457Z,99.90
2019-06-26T04:32:14.031Z,99.90
2019-06-26T04:34:17.581Z,99.90
2019-06-26T04:36:21.048Z,99.90
2019-06-26T04:38:24.525Z,99.90
2019-06-26T04:40:28.066Z,99.90
2019-06-26T04:42:31.605Z,99.90
2019-06-26T04:44:35.157Z,99.90
2019-06-26T04:46:39.030Z,99.90
2019-06-26T04:48:42.930Z,99.90
2019-06-26T04:50:46.473Z,99.90
2019-06-26T04:52:50.024Z,99.90
2019-06-26T04:54:53.645Z,99.90
2019-06-26T04:56:57.117Z,99.90
2019-06-26T04:59:00.681Z,99.90
2019-06-26T05:01:04.228Z,99.90
2019-06-26T05:03:08.037Z,99.90
2019-06-26T05:05:12.181Z,99.90
2019-06-26T05:07:15.718Z,99.90
2019-06-26T05:09:19.391Z,99.90
2019-06-26T05:11:23.065Z,99.90
2019-06-26T05:13:26.613Z,99.90
2019-06-26T05:15:30.525Z,99.90
2019-06-26T05:17:34.354Z,99.90
2019-06-26T05:19:37.897Z,99.90
2019-06-26T05:21:41.593Z,99.90
2019-06-26T05:23:45.499Z,99.90
2019-06-26T05:25:49.037Z,98.50
2019-06-26T05:27:52.586Z,97.70
2019-06-26T05:29:56.063Z,94.90
2019-06-26T05:31:59.786Z,93.30
2019-06-26T05:34:03.613Z,91.40
2019-06-26T05:36:07.491Z,89.30
2019-06-26T05:38:11.425Z,85.50
2019-06-26T05:40:15.337Z,84.10
2019-06-26T05:42:18.885Z,81.70
2019-06-26T05:44:22.425Z,80.20
2019-06-26T05:46:31.186Z,77.30
2019-06-26T05:48:31.492Z,75.10
2019-06-26T05:50:35.041Z,72.60
2019-06-26T05:52:42.199Z,70.50
2019-06-26T05:54:43.938Z,68.70
2019-06-26T05:56:47.589Z,67.60
2019-06-26T05:58:51.523Z,65.20
2019-06-26T06:00:55.149Z,63.60
2019-06-26T06:02:59.005Z,63.00
2019-06-26T06:05:02.624Z,62.10
2019-06-26T06:07:06.096Z,60.90
2019-06-26T06:09:10.015Z,60.00
2019-06-26T06:11:14.485Z,60.00
2019-06-26T06:13:17.953Z,57.50
2019-06-26T06:15:21.738Z,57.90
2019-06-26T06:17:25.295Z,57.50
2019-06-26T06:19:28.835Z,57.20
2019-06-26T06:21:32.716Z,56.50
2019-06-26T06:23:36.251Z,55.90
2019-06-26T06:25:40.310Z,56.00
2019-06-26T06:27:44.326Z,55.70
2019-06-26T06:29:47.873Z,56.20
2019-06-26T06:31:51.446Z,56.60
2019-06-26T06:33:55.325Z,56.70
2019-06-26T06:35:58.878Z,56.70
2019-06-26T06:38:02.493Z,56.20
2019-06-26T06:40:07.747Z,55.50
2019-06-26T06:42:13.929Z,55.70
2019-06-26T06:44:17.467Z,55.40
2019-06-26T06:46:20.945Z,56.00
2019-06-26T06:48:24.820Z,56.00
2019-06-26T06:50:28.345Z,55.50
2019-06-26T06:52:33.097Z,55.20
2019-06-26T06:54:36.894Z,55.50
2019-06-26T06:56:40.443Z,55.20
2019-06-26T06:58:44.358Z,55.20
2019-06-26T07:00:47.912Z,55.30
2019-06-26T07:02:52.448Z,54.90
2019-06-26T07:04:56.147Z,54.40
2019-06-26T07:06:59.680Z,55.00
2019-06-26T07:09:05.001Z,54.50
2019-06-26T07:11:08.523Z,54.10
2019-06-26T07:13:12.057Z,53.60
2019-06-26T07:15:16.305Z,53.50
2019-06-26T07:17:21.414Z,53.40
2019-06-26T07:19:25.705Z,53.10
2019-06-26T07:21:29.328Z,52.90
2019-06-26T07:23:33.958Z,51.00
2019-06-26T07:25:37.500Z,50.10
2019-06-26T07:27:42.044Z,50.00
2019-06-26T07:29:45.579Z,49.90
2019-06-26T07:31:50.191Z,49.60
2019-06-26T07:33:55.725Z,49.00
2019-06-26T07:35:59.315Z,47.80
2019-06-26T07:38:02.857Z,47.00
2019-06-26T07:40:07.625Z,46.40
2019-06-26T07:42:12.055Z,45.80
2019-06-26T07:44:15.526Z,45.50
2019-06-26T07:46:19.366Z,45.50
2019-06-26T07:48:23.474Z,46.20
2019-06-26T07:50:27.015Z,45.60
2019-06-26T07:52:32.715Z,44.90
2019-06-26T07:54:36.531Z,44.40
2019-06-26T07:56:40.475Z,44.10
2019-06-26T07:58:44.327Z,44.40
2019-06-26T08:00:47.869Z,44.40
2019-06-26T08:02:51.417Z,44.80
2019-06-26T08:04:55.440Z,44.10
2019-06-26T08:06:58.985Z,43.70
2019-06-26T08:09:03.138Z,44.00
2019-06-26T08:11:06.770Z,43.40
2019-06-26T08:13:10.314Z,44.80
2019-06-26T08:15:14.169Z,44.10
2019-06-26T08:17:20.673Z,43.70
2019-06-26T08:19:24.577Z,43.20
2019-06-26T08:21:28.517Z,43.60
2019-06-26T08:23:32.311Z,43.10
2019-06-26T08:25:35.970Z,43.30
2019-06-26T08:27:40.334Z,43.70
2019-06-26T08:29:44.821Z,43.30
2019-06-26T08:31:49.917Z,43.10
2019-06-26T08:33:53.886Z,43.00
2019-06-26T08:35:57.697Z,42.70
2019-06-26T08:38:11.142Z,42.20
2019-06-26T08:40:07.769Z,41.80
2019-06-26T08:42:11.355Z,41.50
2019-06-26T08:44:15.282Z,43.30
2019-06-26T08:46:19.036Z,43.70
2019-06-26T08:48:39.016Z,43.20
2019-06-26T08:50:28.945Z,44.20
2019-06-26T08:52:32.482Z,43.60
2019-06-26T08:54:36.450Z,43.50
2019-06-26T08:56:39.995Z,43.50
2019-06-26T08:58:43.931Z,44.20
2019-06-26T09:00:47.485Z,44.40
2019-06-26T09:02:51.058Z,44.20
2019-06-26T09:04:54.725Z,44.90
2019-06-26T09:06:58.381Z,45.70
2019-06-26T09:09:02.260Z,45.70
2019-06-26T09:11:06.814Z,45.70
2019-06-26T09:13:11.231Z,46.20
2019-06-26T09:15:14.913Z,46.20
2019-06-26T09:17:18.653Z,45.30
2019-06-26T09:19:22.597Z,44.80
2019-06-26T09:21:26.172Z,44.50
2019-06-26T09:23:31.145Z,44.30
2019-06-26T09:25:34.923Z,43.80
2019-06-26T09:27:38.516Z,43.00
2019-06-26T09:29:42.389Z,43.20
2019-06-26T09:31:45.862Z,43.20
2019-06-26T09:33:49.406Z,42.60
2019-06-26T09:35:53.333Z,42.40
2019-06-26T09:37:57.036Z,43.00
2019-06-26T09:40:00.795Z,41.20
2019-06-26T09:42:04.643Z,41.50
2019-06-26T09:44:08.352Z,42.30
2019-06-26T09:46:12.274Z,41.80
2019-06-26T09:48:15.916Z,40.90
2019-06-26T09:50:20.626Z,42.40
2019-06-26T09:52:24.426Z,42.20
2019-06-26T09:54:28.931Z,41.40
2019-06-26T09:56:32.784Z,41.60
2019-06-26T09:58:36.487Z,41.90
2019-06-26T10:00:40.259Z,41.70
2019-06-26T10:02:44.674Z,42.00
2019-06-26T10:04:48.217Z,42.60
2019-06-26T10:06:51.857Z,42.40
2019-06-26T10:08:55.399Z,41.90
2019-06-26T10:10:58.932Z,41.90
2019-06-26T10:13:02.395Z,41.20
2019-06-26T10:15:07.016Z,42.20
2019-06-26T10:17:10.887Z,41.20
2019-06-26T10:19:14.777Z,40.90
2019-06-26T10:21:18.245Z,40.90
2019-06-26T10:23:22.080Z,40.40
2019-06-26T10:25:25.721Z,40.60
2019-06-26T10:27:30.105Z,41.10
2019-06-26T10:29:34.200Z,42.00
2019-06-26T10:31:37.909Z,42.00
2019-06-26T10:33:41.445Z,41.60
2019-06-26T10:35:45.317Z,41.80
2019-06-26T10:37:48.886Z,41.50
2019-06-26T10:39:52.350Z,42.80
2019-06-26T10:41:55.841Z,42.70
2019-06-26T10:43:59.440Z,42.50
2019-06-26T10:46:03.307Z,43.20
2019-06-26T10:48:07.918Z,42.70
2019-06-26T10:50:13.534Z,42.20
2019-06-26T10:52:17.070Z,42.30
2019-06-26T10:54:21.120Z,42.90
2019-06-26T10:56:28.546Z,43.90
2019-06-26T10:58:30.280Z,44.00
2019-06-26T11:00:38.451Z,43.10
2019-06-26T11:02:42.623Z,42.80
2019-06-26T11:04:46.580Z,42.50
2019-06-26T11:06:50.433Z,42.40
2019-06-26T11:08:54.341Z,42.60
2019-06-26T11:10:58.745Z,42.90
2019-06-26T11:13:02.684Z,43.00
2019-06-26T11:15:08.152Z,42.70
2019-06-26T11:17:12.026Z,43.10
2019-06-26T11:19:15.944Z,42.80
2019-06-26T11:21:20.318Z,42.60
2019-06-26T11:23:23.881Z,44.60
2019-06-26T11:25:27.827Z,44.40
2019-06-26T11:27:31.365Z,44.40
2019-06-26T11:29:35.759Z,44.20
2019-06-26T11:31:39.607Z,44.70
2019-06-26T11:33:43.442Z,43.40
2019-06-26T11:35:47.253Z,44.20
2019-06-26T11:37:50.901Z,43.90
2019-06-26T11:39:54.750Z,44.60
2019-06-26T11:41:58.684Z,44.90
2019-06-26T11:44:02.210Z,45.20
2019-06-26T11:46:06.169Z,44.40
2019-06-26T11:48:10.478Z,41.30
2019-06-26T11:50:14.871Z,42.70
2019-06-26T11:52:18.689Z,43.20
2019-06-26T11:54:22.594Z,43.00
2019-06-26T11:56:26.131Z,42.80
2019-06-26T11:58:29.953Z,43.20
2019-06-26T12:00:33.694Z,42.00
2019-06-26T12:02:37.777Z,43.10
2019-06-26T12:04:41.247Z,43.80
2019-06-26T12:06:46.299Z,43.40
2019-06-26T12:08:50.078Z,43.60
2019-06-26T12:10:53.547Z,44.20
2019-06-26T12:12:57.115Z,42.80
2019-06-26T12:15:01.636Z,42.10
2019-06-26T12:17:05.341Z,42.80
2019-06-26T12:19:09.109Z,42.30
2019-06-26T12:21:12.946Z,43.00
2019-06-26T12:23:16.854Z,42.50
2019-06-26T12:25:20.757Z,42.50
2019-06-26T12:27:24.693Z,43.40
2019-06-26T12:29:28.565Z,43.90
2019-06-26T12:31:32.370Z,44.10
2019-06-26T12:33:36.301Z,44.00
2019-06-26T12:35:39.995Z,43.70
2019-06-26T12:37:43.575Z,43.10
2019-06-26T12:39:47.119Z,43.20
2019-06-26T12:41:50.770Z,43.80
2019-06-26T12:43:54.701Z,43.80
2019-06-26T12:45:58.293Z,43.70
2019-06-26T12:48:05.283Z,43.90
2019-06-26T12:50:10.984Z,43.20
2019-06-26T12:52:16.955Z,43.90
2019-06-26T12:54:20.045Z,43.40
2019-06-26T12:56:23.865Z,42.60
2019-06-26T12:58:27.401Z,42.70
2019-06-26T13:00:30.887Z,42.80
2019-06-26T13:02:34.435Z,42.40
2019-06-26T13:04:38.332Z,41.80
2019-06-26T13:06:41.885Z,40.90
2019-06-26T13:08:45.466Z,39.80
2019-06-26T13:10:50.456Z,39.30
2019-06-26T13:12:54.287Z,39.40
2019-06-26T13:14:58.831Z,37.80
2019-06-26T13:17:02.686Z,37.40
2019-06-26T13:19:06.607Z,37.10
2019-06-26T13:21:10.133Z,37.60
2019-06-26T13:23:14.884Z,37.50
2019-06-26T13:25:19.613Z,36.30
2019-06-26T13:27:23.440Z,36.40
2019-06-26T13:29:26.979Z,36.30
2019-06-26T13:31:30.514Z,37.20
2019-06-26T13:33:34.128Z,37.00
2019-06-26T13:35:37.937Z,36.50
2019-06-26T13:37:41.822Z,37.90
2019-06-26T13:39:46.228Z,38.60
2019-06-26T13:41:50.078Z,37.70
2019-06-26T13:43:53.685Z,37.40
2019-06-26T13:45:58.851Z,37.50
2019-06-26T13:48:03.413Z,38.30
2019-06-26T13:50:08.005Z,38.80
2019-06-26T13:52:11.855Z,40.70
2019-06-26T13:54:15.321Z,42.40
2019-06-26T13:56:18.926Z,43.20
2019-06-26T13:58:23.646Z,44.60
2019-06-26T14:00:27.192Z,45.30
2019-06-26T14:02:31.046Z,45.20
2019-06-26T14:04:34.603Z,45.90
2019-06-26T14:06:38.457Z,46.40
2019-06-26T14:08:42.098Z,46.60
2019-06-26T14:10:45.906Z,47.40
2019-06-26T14:12:49.794Z,47.10
2019-06-26T14:14:57.693Z,47.60
2019-06-26T14:16:59.193Z,48.20
2019-06-26T14:19:02.774Z,48.30
2019-06-26T14:21:06.327Z,48.00
2019-06-26T14:23:09.863Z,47.70
2019-06-26T14:25:14.493Z,47.70
2019-06-26T14:27:18.037Z,48.30
2019-06-26T14:29:21.954Z,49.10
2019-06-26T14:31:25.579Z,49.00
2019-06-26T14:33:30.427Z,49.50
2019-06-26T14:35:34.015Z,48.60
2019-06-26T14:37:37.558Z,48.10
2019-06-26T14:39:41.199Z,47.30
2019-06-26T14:41:44.705Z,48.30
2019-06-26T14:43:48.245Z,49.30
2019-06-26T14:45:52.134Z,49.60
2019-06-26T14:47:55.889Z,47.20
2019-06-26T14:49:59.744Z,45.40
2019-06-26T14:52:03.290Z,45.30
2019-06-26T14:54:06.853Z,45.40
2019-06-26T14:56:10.404Z,45.30
2019-06-26T14:58:13.942Z,45.40
2019-06-26T15:00:17.981Z,45.80
2019-06-26T15:02:21.714Z,46.50
2019-06-26T15:04:25.324Z,46.10
2019-06-26T15:06:28.865Z,45.70
2019-06-26T15:08:32.413Z,45.80
2019-06-26T15:10:36.058Z,45.70
2019-06-26T15:12:39.596Z,45.90
2019-06-26T15:14:43.145Z,46.20
2019-06-26T15:16:49.449Z,46.20
2019-06-26T15:18:53.282Z,45.50
2019-06-26T15:20:57.121Z,45.20
2019-06-26T15:23:00.678Z,45.10
2019-06-26T15:25:07.170Z,45.10
2019-06-26T15:27:11.869Z,45.90
2019-06-26T15:29:15.415Z,45.20
2019-06-26T15:31:18.953Z,44.60
2019-06-26T15:33:23.146Z,44.30
2019-06-26T15:35:27.565Z,45.10
2019-06-26T15:37:31.498Z,45.30
2019-06-26T15:39:35.042Z,45.10
2019-06-26T15:41:38.694Z,46.00
2019-06-26T15:43:42.242Z,45.50
2019-06-26T15:45:47.699Z,45.40
2019-06-26T15:47:51.734Z,45.20
2019-06-26T15:49:55.276Z,45.30
2019-06-26T15:52:14.063Z,45.30
2019-06-26T15:54:04.092Z,45.30
2019-06-26T15:56:07.625Z,46.00
2019-06-26T15:58:11.093Z,46.10
2019-06-26T16:00:15.296Z,47.00
2019-06-26T16:02:18.797Z,46.40
2019-06-26T16:04:22.532Z,46.80
2019-06-26T16:06:26.478Z,46.70
2019-06-26T16:08:30.139Z,46.70
2019-06-26T16:10:34.708Z,46.90
2019-06-26T16:12:38.459Z,47.10
2019-06-26T16:14:42.295Z,47.50
2019-06-26T16:16:47.704Z,47.40
2019-06-26T16:19:01.958Z,47.80
2019-06-26T16:21:07.723Z,48.10
2019-06-26T16:23:11.285Z,48.00
2019-06-26T16:25:15.137Z,48.60
2019-06-26T16:27:18.845Z,49.00
2019-06-26T16:29:22.739Z,48.60
2019-06-26T16:31:26.285Z,48.50
2019-06-26T16:33:29.829Z,48.90
2019-06-26T16:35:33.681Z,48.60
2019-06-26T16:37:37.558Z,48.50
2019-06-26T16:39:41.543Z,48.90
2019-06-26T16:41:48.885Z,49.60
2019-06-26T16:43:51.018Z,49.90
2019-06-26T16:45:54.666Z,50.50
2019-06-26T16:47:58.466Z,50.60
2019-06-26T16:50:02.502Z,50.70
2019-06-26T16:52:06.114Z,51.00
2019-06-26T16:54:10.040Z,50.90
2019-06-26T16:56:13.551Z,50.80
2019-06-26T16:58:17.317Z,51.20
2019-06-26T17:00:20.914Z,51.10
2019-06-26T17:02:24.806Z,51.40
2019-06-26T17:04:28.352Z,51.90
2019-06-26T17:06:32.951Z,52.40
2019-06-26T17:08:36.867Z,52.50
2019-06-26T17:10:40.702Z,52.50
2019-06-26T17:12:44.258Z,52.60
2019-06-26T17:14:47.805Z,52.80
2019-06-26T17:16:51.929Z,52.90
2019-06-26T17:18:55.478Z,53.10
2019-06-26T17:20:59.363Z,53.20
2019-06-26T17:23:06.143Z,53.10
2019-06-26T17:25:08.510Z,53.20
2019-06-26T17:27:12.391Z,53.30
2019-06-26T17:29:16.797Z,53.60
2019-06-26T17:31:20.335Z,54.00
2019-06-26T17:33:24.512Z,55.10
2019-06-26T17:35:28.395Z,54.80
2019-06-26T17:37:32.317Z,55.10
2019-06-26T17:39:36.275Z,55.20
2019-06-26T17:41:39.773Z,55.80
2019-06-26T17:43:43.626Z,56.10
2019-06-26T17:45:47.498Z,56.40
2019-06-26T17:47:51.255Z,56.70
2019-06-26T17:49:54.915Z,57.00
2019-06-26T17:51:59.345Z,58.20
2019-06-26T17:54:02.995Z,57.90
2019-06-26T17:56:07.159Z,58.20
2019-06-26T17:58:11.070Z,58.60
2019-06-26T18:00:15.518Z,59.70
2019-06-26T18:02:19.062Z,59.20
2019-06-26T18:04:22.619Z,59.50
2019-06-26T18:06:26.161Z,59.70
2019-06-26T18:08:29.733Z,60.00
2019-06-26T18:10:33.355Z,60.20
2019-06-26T18:12:37.097Z,60.50
2019-06-26T18:14:43.217Z,60.90
2019-06-26T18:16:46.009Z,61.40
2019-06-26T18:18:49.927Z,61.70
2019-06-26T18:20:53.463Z,62.00
2019-06-26T18:23:06.990Z,62.40
2019-06-26T18:25:02.845Z,62.80
2019-06-26T18:27:06.460Z,63.20
2019-06-26T18:29:11.046Z,63.60
2019-06-26T18:31:14.701Z,63.90
2019-06-26T18:33:18.264Z,64.30
2019-06-26T18:35:21.805Z,64.60
2019-06-26T18:37:25.345Z,65.10
2019-06-26T18:39:29.385Z,65.40
2019-06-26T18:41:33.281Z,66.00
2019-06-26T18:43:36.822Z,66.40
2019-06-26T18:45:40.520Z,66.90
2019-06-26T18:47:44.366Z,67.20
2019-06-26T18:49:48.298Z,67.90
2019-06-26T18:51:52.177Z,68.50
2019-06-26T18:53:55.725Z,68.80
2019-06-26T18:55:59.269Z,69.40
2019-06-26T18:58:03.177Z,69.70
2019-06-26T19:00:08.456Z,70.00
2019-06-26T19:02:12.418Z,70.20
2019-06-26T19:04:16.142Z,70.50
2019-06-26T19:06:21.985Z,71.00
2019-06-26T19:08:26.997Z,71.30
2019-06-26T19:10:31.146Z,71.60
2019-06-26T19:12:34.742Z,72.00
2019-06-26T19:14:38.293Z,72.20
2019-06-26T19:16:42.117Z,72.60
2019-06-26T19:18:45.714Z,73.20
2019-06-26T19:20:49.643Z,73.40
2019-06-26T19:22:54.005Z,73.60
2019-06-26T19:24:57.729Z,73.90
2019-06-26T19:27:06.536Z,74.20
2019-06-26T19:29:08.508Z,74.70
2019-06-26T19:31:12.440Z,75.20
2019-06-26T19:33:16.319Z,75.80
2019-06-26T19:35:20.478Z,76.30
2019-06-26T19:37:24.314Z,76.70
2019-06-26T19:39:28.137Z,76.90
2019-06-26T19:41:32.598Z,77.20
2019-06-26T19:43:36.247Z,77.70
2019-06-26T19:45:40.968Z,77.90
2019-06-26T19:47:45.222Z,78.40
2019-06-26T19:49:49.618Z,78.50
2019-06-26T19:51:53.535Z,78.70
2019-06-26T19:53:59.570Z,79.10
2019-06-26T19:56:03.169Z,79.00
2019-06-26T19:58:07.066Z,79.50
2019-06-26T20:00:11.635Z,79.90
2019-06-26T20:02:15.591Z,80.40
2019-06-26T20:04:19.731Z,80.80
2019-06-26T20:06:24.442Z,81.00
2019-06-26T20:08:28.442Z,81.20
2019-06-26T20:10:33.333Z,81.60
2019-06-26T20:12:36.915Z,81.80
2019-06-26T20:14:40.478Z,81.80
2019-06-26T20:16:44.463Z,82.00
2019-06-26T20:18:48.013Z,82.20
2019-06-26T20:20:55.370Z,82.60
2019-06-26T20:23:01.662Z,82.70
2019-06-26T20:25:06.726Z,82.70
2019-06-26T20:27:10.209Z,82.80
2019-06-26T20:29:14.143Z,83.00
2019-06-26T20:31:17.686Z,83.20
2019-06-26T20:33:21.542Z,83.30
2019-06-26T20:35:27.549Z,83.50
2019-06-26T20:37:31.101Z,83.90
2019-06-26T20:39:36.526Z,83.90
2019-06-26T20:41:40.337Z,84.20
2019-06-26T20:43:44.273Z,84.20
2019-06-26T20:45:47.793Z,84.30
2019-06-26T20:47:51.487Z,84.60
2019-06-26T20:49:55.338Z,84.40
2019-06-26T20:51:59.347Z,84.50
2019-06-26T20:54:03.478Z,84.60
2019-06-26T20:56:07.128Z,84.80
2019-06-26T20:58:11.583Z,84.70
2019-06-26T21:00:16.706Z,85.00
2019-06-26T21:02:22.166Z,85.30
2019-06-26T21:04:25.693Z,85.40
2019-06-26T21:06:29.646Z,85.50
2019-06-26T21:08:33.688Z,85.50
2019-06-26T21:10:37.225Z,85.90
2019-06-26T21:12:40.691Z,86.00
2019-06-26T21:14:44.691Z,86.30
2019-06-26T21:16:48.943Z,86.30
2019-06-26T21:18:52.804Z,86.50
2019-06-26T21:20:57.201Z,86.40
2019-06-26T21:23:00.744Z,86.50
2019-06-26T21:25:18.306Z,86.50
2019-06-26T21:27:13.736Z,86.60
2019-06-26T21:29:17.696Z,87.00
2019-06-26T21:31:21.187Z,87.20
2019-06-26T21:33:24.738Z,87.50
2019-06-26T21:35:28.273Z,87.80
2019-06-26T21:37:32.141Z,88.10
2019-06-26T21:39:36.019Z,88.50
2019-06-26T21:41:39.926Z,88.50
2019-06-26T21:43:43.683Z,88.60
2019-06-26T21:45:47.621Z,89.00
2019-06-26T21:47:52.139Z,88.80
2019-06-26T21:49:55.753Z,89.20
2019-06-26T21:51:59.758Z,89.40
2019-06-26T21:54:03.298Z,89.60
2019-06-26T21:56:06.884Z,89.80
2019-06-26T21:58:10.758Z,89.70
2019-06-26T22:00:15.526Z,90.00
2019-06-26T22:02:19.974Z,90.20
2019-06-26T22:04:23.599Z,90.30
2019-06-26T22:06:27.153Z,90.40
2019-06-26T22:08:30.828Z,90.50
2019-06-26T22:10:34.393Z,90.60
2019-06-26T22:12:38.021Z,90.60
2019-06-26T22:14:41.913Z,90.80
2019-06-26T22:16:45.526Z,90.90
2019-06-26T22:18:49.145Z,90.90
2019-06-26T22:20:52.869Z,91.10
2019-06-26T22:22:57.178Z,91.10
2019-06-26T22:25:00.829Z,91.20
2019-06-26T22:27:04.336Z,91.20
2019-06-26T22:29:08.311Z,91.20
2019-06-26T22:31:12.220Z,91.30
2019-06-26T22:33:15.833Z,91.30
2019-06-26T22:35:19.377Z,91.40
2019-06-26T22:37:22.889Z,91.60
2019-06-26T22:39:27.287Z,91.60
2019-06-26T22:41:31.407Z,91.70
2019-06-26T22:43:35.226Z,91.80
2019-06-26T22:45:38.836Z,91.90
2019-06-26T22:47:42.957Z,92.00
2019-06-26T22:49:46.857Z,92.00
2019-06-26T22:51:50.394Z,92.10
2019-06-26T22:53:54.266Z,92.10
2019-06-26T22:56:07.782Z,92.00
2019-06-26T22:58:03.445Z,92.00
2019-06-26T23:00:12.109Z,91.90
2019-06-26T23:02:16.503Z,91.90
2019-06-26T23:04:20.523Z,92.00
2019-06-26T23:06:24.547Z,91.90
2019-06-26T23:08:28.095Z,91.80
2019-06-26T23:10:31.654Z,91.80
2019-06-26T23:12:35.479Z,91.80
2019-06-26T23:14:39.027Z,91.80
2019-06-26T23:16:42.931Z,91.80
2019-06-26T23:18:46.586Z,91.80
2019-06-26T23:20:51.066Z,91.90
2019-06-26T23:22:54.686Z,91.80
2019-06-26T23:24:58.265Z,91.70
2019-06-26T23:27:02.147Z,91.80
2019-06-26T23:29:06.639Z,91.80
2019-06-26T23:31:10.199Z,91.90
2019-06-26T23:33:13.752Z,91.90
2019-06-26T23:35:17.767Z,91.90
2019-06-26T23:37:21.554Z,92.10
2019-06-26T23:39:25.832Z,92.20
2019-06-26T23:41:29.688Z,92.20
2019-06-26T23:43:33.237Z,92.30
2019-06-26T23:45:36.874Z,92.50
2019-06-26T23:47:40.787Z,92.60
2019-06-26T23:49:44.334Z,92.80
2019-06-26T23:51:48.186Z,92.90
2019-06-26T23:53:51.738Z,93.10
2019-06-26T23:55:55.946Z,93.20
2019-06-26T23:57:59.833Z,93.30
